sensor_id;sensor_type;location;lat;lon;timestamp;P1;durP1;ratioP1;P2;durP2;ratioP2
62574;SDS011;53112;45.602;11.904;2022-09-20T00:01:06;2.13;;;1.42;;
62574;SDS011;53112;45.602;11.904;2022-09-20T00:03:38;3.10;;;1.80;;
62574;SDS011;53112;45.602;11.904;2022-09-20T00:06:06;2.00;;;1.70;;
62574;SDS011;53112;45.602;11.904;2022-09-20T00:08:34;2.47;;;1.70;;
62574;SDS011;53112;45.602;11.904;2022-09-20T00:11:04;2.95;;;1.48;;
62574;SDS011;53112;45.602;11.904;2022-09-20T00:13:32;2.35;;;1.40;;
62574;SDS011;53112;45.602;11.904;2022-09-20T00:16:02;2.33;;;1.50;;
62574;SDS011;53112;45.602;11.904;2022-09-20T00:18:29;1.60;;;1.48;;
62574;SDS011;53112;45.602;11.904;2022-09-20T00:20:55;1.52;;;1.40;;
62574;SDS011;53112;45.602;11.904;2022-09-20T00:23:21;1.88;;;1.42;;
62574;SDS011;53112;45.602;11.904;2022-09-20T00:25:53;1.40;;;1.30;;
62574;SDS011;53112;45.602;11.904;2022-09-20T00:28:21;1.60;;;1.50;;
62574;SDS011;53112;45.602;11.904;2022-09-20T00:30:47;4.22;;;1.67;;
62574;SDS011;53112;45.602;11.904;2022-09-20T00:33:13;1.67;;;1.38;;
62574;SDS011;53112;45.602;11.904;2022-09-20T00:35:41;2.10;;;1.33;;
62574;SDS011;53112;45.602;11.904;2022-09-20T00:38:08;1.60;;;1.40;;
62574;SDS011;53112;45.602;11.904;2022-09-20T00:40:36;1.73;;;1.48;;
62574;SDS011;53112;45.602;11.904;2022-09-20T00:43:02;1.77;;;1.42;;
62574;SDS011;53112;45.602;11.904;2022-09-20T00:45:29;1.38;;;1.27;;
62574;SDS011;53112;45.602;11.904;2022-09-20T00:55:22;1.55;;;1.30;;
62574;SDS011;53112;45.602;11.904;2022-09-20T00:57:49;1.30;;;1.20;;
62574;SDS011;53112;45.602;11.904;2022-09-20T01:00:15;1.38;;;1.27;;
62574;SDS011;53112;45.602;11.904;2022-09-20T01:02:43;3.10;;;1.30;;
62574;SDS011;53112;45.602;11.904;2022-09-20T01:05:12;1.63;;;1.30;;
62574;SDS011;53112;45.602;11.904;2022-09-20T01:07:40;1.95;;;1.40;;
62574;SDS011;53112;45.602;11.904;2022-09-20T01:10:08;1.30;;;1.20;;
62574;SDS011;53112;45.602;11.904;2022-09-20T01:12:34;1.52;;;1.30;;
62574;SDS011;53112;45.602;11.904;2022-09-20T01:15:05;2.45;;;1.30;;
62574;SDS011;53112;45.602;11.904;2022-09-20T01:17:34;1.67;;;1.20;;
62574;SDS011;53112;45.602;11.904;2022-09-20T01:20:21;1.10;;;1.10;;
62574;SDS011;53112;45.602;11.904;2022-09-20T01:28:28;1.42;;;1.33;;
62574;SDS011;53112;45.602;11.904;2022-09-20T01:31:18;2.60;;;1.35;;
62574;SDS011;53112;45.602;11.904;2022-09-20T01:36:22;1.73;;;1.30;;
62574;SDS011;53112;45.602;11.904;2022-09-20T01:38:58;1.40;;;1.30;;
62574;SDS011;53112;45.602;11.904;2022-09-20T01:41:36;1.75;;;1.60;;
62574;SDS011;53112;45.602;11.904;2022-09-20T01:46:43;1.73;;;1.50;;
62574;SDS011;53112;45.602;11.904;2022-09-20T01:52:08;2.15;;;1.60;;
62574;SDS011;53112;45.602;11.904;2022-09-20T02:23:57;1.92;;;1.30;;
62574;SDS011;53112;45.602;11.904;2022-09-20T02:33:01;3.10;;;1.40;;
62574;SDS011;53112;45.602;11.904;2022-09-20T02:35:41;1.60;;;1.38;;
62574;SDS011;53112;45.602;11.904;2022-09-20T02:38:35;1.33;;;1.20;;
62574;SDS011;53112;45.602;11.904;2022-09-20T02:41:19;1.90;;;1.40;;
62574;SDS011;53112;45.602;11.904;2022-09-20T02:49:32;1.40;;;1.20;;
62574;SDS011;53112;45.602;11.904;2022-09-20T02:55:37;1.30;;;1.20;;
62574;SDS011;53112;45.602;11.904;2022-09-20T03:03:40;1.33;;;1.30;;
62574;SDS011;53112;45.602;11.904;2022-09-20T03:09:32;1.35;;;1.17;;
62574;SDS011;53112;45.602;11.904;2022-09-20T03:23:05;1.42;;;1.30;;
62574;SDS011;53112;45.602;11.904;2022-09-20T03:29:04;1.10;;;1.10;;
62574;SDS011;53112;45.602;11.904;2022-09-20T03:45:49;1.30;;;1.20;;
62574;SDS011;53112;45.602;11.904;2022-09-20T03:54:58;1.73;;;1.25;;
62574;SDS011;53112;45.602;11.904;2022-09-20T04:08:47;1.77;;;1.30;;
62574;SDS011;53112;45.602;11.904;2022-09-20T04:17:01;1.50;;;1.40;;
62574;SDS011;53112;45.602;11.904;2022-09-20T04:20:33;1.33;;;1.23;;
62574;SDS011;53112;45.602;11.904;2022-09-20T04:22:31;1.30;;;1.20;;
62574;SDS011;53112;45.602;11.904;2022-09-20T04:27:45;1.60;;;1.45;;
62574;SDS011;53112;45.602;11.904;2022-09-20T04:38:31;1.75;;;1.65;;
62574;SDS011;53112;45.602;11.904;2022-09-20T04:52:48;3.45;;;2.45;;
62574;SDS011;53112;45.602;11.904;2022-09-20T05:00:18;3.58;;;2.38;;
62574;SDS011;53112;45.602;11.904;2022-09-20T05:25:05;4.15;;;2.40;;
62574;SDS011;53112;45.602;11.904;2022-09-20T05:28:03;3.42;;;2.33;;
62574;SDS011;53112;45.602;11.904;2022-09-20T05:30:39;4.97;;;2.35;;
62574;SDS011;53112;45.602;11.904;2022-09-20T05:38:51;2.50;;;2.08;;
62574;SDS011;53112;45.602;11.904;2022-09-20T05:55:16;4.88;;;2.40;;
62574;SDS011;53112;45.602;11.904;2022-09-20T06:00:48;4.45;;;2.20;;
62574;SDS011;53112;45.602;11.904;2022-09-20T06:19:33;4.97;;;2.50;;
62574;SDS011;53112;45.602;11.904;2022-09-20T06:22:15;3.50;;;2.33;;
62574;SDS011;53112;45.602;11.904;2022-09-20T06:27:41;5.20;;;2.50;;
62574;SDS011;53112;45.602;11.904;2022-09-20T06:30:22;4.55;;;2.10;;
62574;SDS011;53112;45.602;11.904;2022-09-20T06:32:59;4.97;;;1.95;;
62574;SDS011;53112;45.602;11.904;2022-09-20T06:35:34;2.92;;;1.70;;
62574;SDS011;53112;45.602;11.904;2022-09-20T06:41:46;2.03;;;1.60;;
62574;SDS011;53112;45.602;11.904;2022-09-20T06:44:12;1.67;;;1.42;;
62574;SDS011;53112;45.602;11.904;2022-09-20T06:46:38;1.75;;;1.45;;
62574;SDS011;53112;45.602;11.904;2022-09-20T06:49:05;1.88;;;1.40;;
62574;SDS011;53112;45.602;11.904;2022-09-20T06:51:34;3.13;;;1.25;;
62574;SDS011;53112;45.602;11.904;2022-09-20T06:54:02;2.65;;;1.42;;
62574;SDS011;53112;45.602;11.904;2022-09-20T06:56:30;1.92;;;1.42;;
62574;SDS011;53112;45.602;11.904;2022-09-20T06:59:04;3.47;;;1.50;;
62574;SDS011;53112;45.602;11.904;2022-09-20T07:01:35;1.20;;;1.10;;
62574;SDS011;53112;45.602;11.904;2022-09-20T07:04:02;1.40;;;1.30;;
62574;SDS011;53112;45.602;11.904;2022-09-20T07:06:31;1.50;;;1.38;;
62574;SDS011;53112;45.602;11.904;2022-09-20T07:08:57;2.58;;;1.35;;
62574;SDS011;53112;45.602;11.904;2022-09-20T07:11:23;3.70;;;1.45;;
62574;SDS011;53112;45.602;11.904;2022-09-20T07:13:50;1.92;;;1.42;;
62574;SDS011;53112;45.602;11.904;2022-09-20T07:16:18;2.42;;;1.30;;
62574;SDS011;53112;45.602;11.904;2022-09-20T07:18:45;1.58;;;1.33;;
62574;SDS011;53112;45.602;11.904;2022-09-20T07:21:13;1.45;;;1.23;;
62574;SDS011;53112;45.602;11.904;2022-09-20T07:23:40;2.78;;;1.30;;
62574;SDS011;53112;45.602;11.904;2022-09-20T07:26:06;1.35;;;1.25;;
62574;SDS011;53112;45.602;11.904;2022-09-20T07:28:41;1.30;;;1.20;;
62574;SDS011;53112;45.602;11.904;2022-09-20T07:31:07;2.42;;;1.17;;
62574;SDS011;53112;45.602;11.904;2022-09-20T07:33:33;1.20;;;1.10;;
62574;SDS011;53112;45.602;11.904;2022-09-20T07:35:59;1.23;;;1.13;;
62574;SDS011;53112;45.602;11.904;2022-09-20T07:38:26;0.95;;;0.95;;
62574;SDS011;53112;45.602;11.904;2022-09-20T07:40:56;1.45;;;1.10;;
62574;SDS011;53112;45.602;11.904;2022-09-20T07:45:52;2.35;;;1.30;;
62574;SDS011;53112;45.602;11.904;2022-09-20T07:48:30;2.50;;;1.27;;
62574;SDS011;53112;45.602;11.904;2022-09-20T07:50:58;3.13;;;1.10;;
62574;SDS011;53112;45.602;11.904;2022-09-20T07:53:28;1.52;;;1.10;;
62574;SDS011;53112;45.602;11.904;2022-09-20T07:58:31;1.05;;;1.00;;
62574;SDS011;53112;45.602;11.904;2022-09-20T08:01:00;0.95;;;0.95;;
62574;SDS011;53112;45.602;11.904;2022-09-20T08:03:29;1.55;;;1.10;;
62574;SDS011;53112;45.602;11.904;2022-09-20T08:06:00;1.30;;;1.00;;
62574;SDS011;53112;45.602;11.904;2022-09-20T08:08:30;2.53;;;1.20;;
62574;SDS011;53112;45.602;11.904;2022-09-20T08:11:02;2.13;;;1.00;;
62574;SDS011;53112;45.602;11.904;2022-09-20T08:13:34;0.90;;;0.90;;
62574;SDS011;53112;45.602;11.904;2022-09-20T08:16:05;1.42;;;1.27;;
62574;SDS011;53112;45.602;11.904;2022-09-20T08:18:33;1.13;;;1.05;;
62574;SDS011;53112;45.602;11.904;2022-09-20T08:21:07;1.67;;;1.10;;
62574;SDS011;53112;45.602;11.904;2022-09-20T08:23:36;1.00;;;1.00;;
62574;SDS011;53112;45.602;11.904;2022-09-20T08:26:03;1.10;;;1.00;;
62574;SDS011;53112;45.602;11.904;2022-09-20T08:28:31;1.27;;;0.82;;
62574;SDS011;53112;45.602;11.904;2022-09-20T08:31:01;0.80;;;0.80;;
62574;SDS011;53112;45.602;11.904;2022-09-20T08:36:05;1.42;;;0.80;;
62574;SDS011;53112;45.602;11.904;2022-09-20T08:38:35;1.30;;;1.10;;
62574;SDS011;53112;45.602;11.904;2022-09-20T08:41:13;1.15;;;0.95;;
62574;SDS011;53112;45.602;11.904;2022-09-20T08:44:05;1.02;;;1.02;;
62574;SDS011;53112;45.602;11.904;2022-09-20T08:46:50;1.42;;;0.80;;
62574;SDS011;53112;45.602;11.904;2022-09-20T08:49:27;1.17;;;0.90;;
62574;SDS011;53112;45.602;11.904;2022-09-20T08:51:54;1.95;;;1.08;;
62574;SDS011;53112;45.602;11.904;2022-09-20T08:54:23;0.90;;;0.70;;
62574;SDS011;53112;45.602;11.904;2022-09-20T08:56:50;1.00;;;0.88;;
62574;SDS011;53112;45.602;11.904;2022-09-20T08:59:17;1.00;;;0.90;;
62574;SDS011;53112;45.602;11.904;2022-09-20T09:01:45;1.70;;;0.80;;
62574;SDS011;53112;45.602;11.904;2022-09-20T09:04:16;1.35;;;0.88;;
62574;SDS011;53112;45.602;11.904;2022-09-20T09:06:46;2.00;;;1.00;;
62574;SDS011;53112;45.602;11.904;2022-09-20T09:09:33;1.00;;;0.80;;
62574;SDS011;53112;45.602;11.904;2022-09-20T09:12:03;3.30;;;0.85;;
62574;SDS011;53112;45.602;11.904;2022-09-20T09:14:31;2.60;;;0.70;;
62574;SDS011;53112;45.602;11.904;2022-09-20T09:17:15;2.13;;;1.17;;
62574;SDS011;53112;45.602;11.904;2022-09-20T09:20:24;1.17;;;0.88;;
62574;SDS011;53112;45.602;11.904;2022-09-20T09:22:48;2.45;;;1.10;;
62574;SDS011;53112;45.602;11.904;2022-09-20T09:25:39;1.00;;;1.00;;
62574;SDS011;53112;45.602;11.904;2022-09-20T09:30:32;1.48;;;1.10;;
62574;SDS011;53112;45.602;11.904;2022-09-20T09:35:50;0.70;;;0.70;;
62574;SDS011;53112;45.602;11.904;2022-09-20T09:38:21;1.10;;;0.73;;
62574;SDS011;53112;45.602;11.904;2022-09-20T09:40:51;1.75;;;0.85;;
62574;SDS011;53112;45.602;11.904;2022-09-20T09:43:25;3.60;;;1.10;;
62574;SDS011;53112;45.602;11.904;2022-09-20T09:45:55;1.00;;;0.90;;
62574;SDS011;53112;45.602;11.904;2022-09-20T09:48:42;2.55;;;1.10;;
62574;SDS011;53112;45.602;11.904;2022-09-20T09:51:15;1.20;;;1.10;;
62574;SDS011;53112;45.602;11.904;2022-09-20T09:53:43;0.90;;;0.90;;
62574;SDS011;53112;45.602;11.904;2022-09-20T10:06:59;1.13;;;0.90;;
62574;SDS011;53112;45.602;11.904;2022-09-20T10:09:52;1.38;;;0.88;;
62574;SDS011;53112;45.602;11.904;2022-09-20T10:20:48;0.88;;;0.80;;
62574;SDS011;53112;45.602;11.904;2022-09-20T10:26:00;2.05;;;0.70;;
62574;SDS011;53112;45.602;11.904;2022-09-20T10:34:02;0.75;;;0.70;;
62574;SDS011;53112;45.602;11.904;2022-09-20T10:36:33;1.25;;;0.80;;
62574;SDS011;53112;45.602;11.904;2022-09-20T10:39:51;1.27;;;0.77;;
62574;SDS011;53112;45.602;11.904;2022-09-20T10:50:35;2.15;;;1.02;;
62574;SDS011;53112;45.602;11.904;2022-09-20T11:01:29;0.73;;;0.73;;
62574;SDS011;53112;45.602;11.904;2022-09-20T11:09:34;0.80;;;0.77;;
62574;SDS011;53112;45.602;11.904;2022-09-20T11:14:53;1.10;;;0.93;;
62574;SDS011;53112;45.602;11.904;2022-09-20T11:17:44;0.88;;;0.75;;
62574;SDS011;53112;45.602;11.904;2022-09-20T11:20:25;0.93;;;0.90;;
62574;SDS011;53112;45.602;11.904;2022-09-20T11:22:57;0.85;;;0.80;;
62574;SDS011;53112;45.602;11.904;2022-09-20T11:25:44;0.70;;;0.63;;
62574;SDS011;53112;45.602;11.904;2022-09-20T11:28:37;1.80;;;0.90;;
62574;SDS011;53112;45.602;11.904;2022-09-20T11:33:57;0.60;;;0.60;;
62574;SDS011;53112;45.602;11.904;2022-09-20T11:36:37;1.30;;;0.88;;
62574;SDS011;53112;45.602;11.904;2022-09-20T11:39:38;0.60;;;0.60;;
62574;SDS011;53112;45.602;11.904;2022-09-20T11:42:15;0.75;;;0.75;;
62574;SDS011;53112;45.602;11.904;2022-09-20T11:47:22;1.33;;;0.80;;
62574;SDS011;53112;45.602;11.904;2022-09-20T11:56:17;1.05;;;0.90;;
62574;SDS011;53112;45.602;11.904;2022-09-20T11:58:47;1.65;;;0.80;;
62574;SDS011;53112;45.602;11.904;2022-09-20T12:01:22;1.08;;;0.70;;
62574;SDS011;53112;45.602;11.904;2022-09-20T12:03:54;0.80;;;0.52;;
62574;SDS011;53112;45.602;11.904;2022-09-20T12:06:25;1.13;;;1.02;;
62574;SDS011;53112;45.602;11.904;2022-09-20T12:08:55;1.30;;;0.70;;
62574;SDS011;53112;45.602;11.904;2022-09-20T12:11:28;1.02;;;0.70;;
62574;SDS011;53112;45.602;11.904;2022-09-20T12:16:38;1.42;;;0.82;;
62574;SDS011;53112;45.602;11.904;2022-09-20T12:19:51;0.70;;;0.70;;
62574;SDS011;53112;45.602;11.904;2022-09-20T12:24:35;1.88;;;0.65;;
62574;SDS011;53112;45.602;11.904;2022-09-20T12:27:19;2.05;;;0.80;;
62574;SDS011;53112;45.602;11.904;2022-09-20T12:41:06;1.10;;;0.77;;
62574;SDS011;53112;45.602;11.904;2022-09-20T12:43:35;1.25;;;0.90;;
62574;SDS011;53112;45.602;11.904;2022-09-20T12:46:18;0.70;;;0.70;;
62574;SDS011;53112;45.602;11.904;2022-09-20T12:48:49;1.70;;;0.70;;
62574;SDS011;53112;45.602;11.904;2022-09-20T12:51:18;0.73;;;0.73;;
62574;SDS011;53112;45.602;11.904;2022-09-20T12:54:08;0.73;;;0.73;;
62574;SDS011;53112;45.602;11.904;2022-09-20T12:56:38;1.20;;;0.82;;
62574;SDS011;53112;45.602;11.904;2022-09-20T12:59:17;1.65;;;0.90;;
62574;SDS011;53112;45.602;11.904;2022-09-20T13:01:47;1.35;;;0.80;;
62574;SDS011;53112;45.602;11.904;2022-09-20T13:07:34;0.85;;;0.75;;
62574;SDS011;53112;45.602;11.904;2022-09-20T13:10:04;0.77;;;0.77;;
62574;SDS011;53112;45.602;11.904;2022-09-20T13:12:45;0.82;;;0.65;;
62574;SDS011;53112;45.602;11.904;2022-09-20T13:15:15;1.08;;;0.80;;
62574;SDS011;53112;45.602;11.904;2022-09-20T13:17:43;1.10;;;0.80;;
62574;SDS011;53112;45.602;11.904;2022-09-20T13:20:16;0.77;;;0.60;;
62574;SDS011;53112;45.602;11.904;2022-09-20T13:22:52;2.20;;;0.98;;
62574;SDS011;53112;45.602;11.904;2022-09-20T13:25:19;0.95;;;0.75;;
62574;SDS011;53112;45.602;11.904;2022-09-20T13:27:49;0.98;;;0.73;;
62574;SDS011;53112;45.602;11.904;2022-09-20T13:30:24;0.98;;;0.63;;
62574;SDS011;53112;45.602;11.904;2022-09-20T13:32:52;0.80;;;0.80;;
62574;SDS011;53112;45.602;11.904;2022-09-20T13:35:22;0.85;;;0.70;;
62574;SDS011;53112;45.602;11.904;2022-09-20T13:40:23;1.50;;;0.85;;
62574;SDS011;53112;45.602;11.904;2022-09-20T13:42:50;2.03;;;0.80;;
62574;SDS011;53112;45.602;11.904;2022-09-20T13:45:20;1.27;;;0.80;;
62574;SDS011;53112;45.602;11.904;2022-09-20T13:47:47;2.17;;;0.90;;
62574;SDS011;53112;45.602;11.904;2022-09-20T13:50:22;2.10;;;0.95;;
62574;SDS011;53112;45.602;11.904;2022-09-20T13:52:52;1.25;;;0.80;;
62574;SDS011;53112;45.602;11.904;2022-09-20T13:55:20;1.83;;;0.90;;
62574;SDS011;53112;45.602;11.904;2022-09-20T13:58:08;1.35;;;0.90;;
62574;SDS011;53112;45.602;11.904;2022-09-20T14:00:45;0.80;;;0.80;;
62574;SDS011;53112;45.602;11.904;2022-09-20T14:03:16;1.60;;;0.90;;
62574;SDS011;53112;45.602;11.904;2022-09-20T14:05:45;0.90;;;0.90;;
62574;SDS011;53112;45.602;11.904;2022-09-20T14:13:51;1.13;;;0.98;;
62574;SDS011;53112;45.602;11.904;2022-09-20T14:16:19;1.70;;;1.08;;
62574;SDS011;53112;45.602;11.904;2022-09-20T14:18:48;1.50;;;0.90;;
62574;SDS011;53112;45.602;11.904;2022-09-20T14:21:22;1.52;;;1.00;;
62574;SDS011;53112;45.602;11.904;2022-09-20T14:23:57;1.02;;;0.95;;
62574;SDS011;53112;45.602;11.904;2022-09-20T14:26:31;1.90;;;0.88;;
62574;SDS011;53112;45.602;11.904;2022-09-20T14:34:44;0.95;;;0.70;;
62574;SDS011;53112;45.602;11.904;2022-09-20T14:39:49;0.80;;;0.80;;
62574;SDS011;53112;45.602;11.904;2022-09-20T14:42:26;1.38;;;0.90;;
62574;SDS011;53112;45.602;11.904;2022-09-20T14:44:55;2.35;;;0.88;;
62574;SDS011;53112;45.602;11.904;2022-09-20T14:47:26;1.60;;;1.00;;
62574;SDS011;53112;45.602;11.904;2022-09-20T14:50:01;1.05;;;0.70;;
62574;SDS011;53112;45.602;11.904;2022-09-20T14:57:38;1.95;;;0.77;;
62574;SDS011;53112;45.602;11.904;2022-09-20T15:00:09;1.17;;;0.93;;
62574;SDS011;53112;45.602;11.904;2022-09-20T15:02:42;1.85;;;0.95;;
62574;SDS011;53112;45.602;11.904;2022-09-20T15:05:25;1.58;;;1.00;;
62574;SDS011;53112;45.602;11.904;2022-09-20T15:07:52;0.88;;;0.88;;
62574;SDS011;53112;45.602;11.904;2022-09-20T15:10:19;1.92;;;1.08;;
62574;SDS011;53112;45.602;11.904;2022-09-20T15:12:46;2.75;;;1.02;;
62574;SDS011;53112;45.602;11.904;2022-09-20T15:15:13;2.38;;;0.93;;
62574;SDS011;53112;45.602;11.904;2022-09-20T15:17:41;1.83;;;0.95;;
62574;SDS011;53112;45.602;11.904;2022-09-20T15:20:13;1.42;;;0.88;;
62574;SDS011;53112;45.602;11.904;2022-09-20T15:22:41;2.33;;;0.93;;
62574;SDS011;53112;45.602;11.904;2022-09-20T15:25:11;1.13;;;1.02;;
62574;SDS011;53112;45.602;11.904;2022-09-20T15:27:38;2.35;;;0.88;;
62574;SDS011;53112;45.602;11.904;2022-09-20T15:30:07;2.80;;;1.02;;
62574;SDS011;53112;45.602;11.904;2022-09-20T15:32:34;1.40;;;0.88;;
62574;SDS011;53112;45.602;11.904;2022-09-20T15:35:00;1.00;;;0.90;;
62574;SDS011;53112;45.602;11.904;2022-09-20T15:37:26;1.40;;;0.90;;
62574;SDS011;53112;45.602;11.904;2022-09-20T15:39:52;1.77;;;0.98;;
62574;SDS011;53112;45.602;11.904;2022-09-20T15:42:18;2.55;;;1.00;;
62574;SDS011;53112;45.602;11.904;2022-09-20T15:44:47;1.38;;;0.73;;
62574;SDS011;53112;45.602;11.904;2022-09-20T15:47:17;2.58;;;0.85;;
62574;SDS011;53112;45.602;11.904;2022-09-20T15:49:42;1.80;;;0.90;;
62574;SDS011;53112;45.602;11.904;2022-09-20T15:52:13;0.90;;;0.90;;
62574;SDS011;53112;45.602;11.904;2022-09-20T15:54:39;1.38;;;0.90;;
62574;SDS011;53112;45.602;11.904;2022-09-20T15:57:05;3.47;;;1.20;;
62574;SDS011;53112;45.602;11.904;2022-09-20T15:59:32;3.60;;;1.10;;
62574;SDS011;53112;45.602;11.904;2022-09-20T16:01:58;1.50;;;0.75;;
62574;SDS011;53112;45.602;11.904;2022-09-20T16:04:25;1.85;;;0.93;;
62574;SDS011;53112;45.602;11.904;2022-09-20T16:06:51;2.08;;;1.00;;
62574;SDS011;53112;45.602;11.904;2022-09-20T16:09:18;1.60;;;0.88;;
62574;SDS011;53112;45.602;11.904;2022-09-20T16:11:45;1.73;;;0.85;;
62574;SDS011;53112;45.602;11.904;2022-09-20T16:14:12;1.42;;;0.90;;
62574;SDS011;53112;45.602;11.904;2022-09-20T16:16:38;1.25;;;0.73;;
62574;SDS011;53112;45.602;11.904;2022-09-20T16:19:05;1.95;;;0.90;;
62574;SDS011;53112;45.602;11.904;2022-09-20T16:21:47;1.45;;;0.90;;
62574;SDS011;53112;45.602;11.904;2022-09-20T16:24:18;0.80;;;0.80;;
62574;SDS011;53112;45.602;11.904;2022-09-20T16:26:47;1.17;;;0.93;;
62574;SDS011;53112;45.602;11.904;2022-09-20T16:29:12;1.00;;;0.75;;
62574;SDS011;53112;45.602;11.904;2022-09-20T16:31:42;1.40;;;1.00;;
62574;SDS011;53112;45.602;11.904;2022-09-20T16:36:52;1.50;;;1.10;;
62574;SDS011;53112;45.602;11.904;2022-09-20T16:39:20;1.02;;;0.80;;
62574;SDS011;53112;45.602;11.904;2022-09-20T16:41:55;2.28;;;0.93;;
62574;SDS011;53112;45.602;11.904;2022-09-20T16:44:25;1.70;;;1.20;;
62574;SDS011;53112;45.602;11.904;2022-09-20T16:46:51;3.25;;;1.20;;
62574;SDS011;53112;45.602;11.904;2022-09-20T16:49:17;2.45;;;1.20;;
62574;SDS011;53112;45.602;11.904;2022-09-20T16:51:43;2.88;;;1.30;;
62574;SDS011;53112;45.602;11.904;2022-09-20T16:54:11;2.08;;;1.30;;
62574;SDS011;53112;45.602;11.904;2022-09-20T16:56:40;1.60;;;1.20;;
62574;SDS011;53112;45.602;11.904;2022-09-20T16:59:09;1.70;;;0.95;;
62574;SDS011;53112;45.602;11.904;2022-09-20T17:01:37;1.70;;;1.13;;
62574;SDS011;53112;45.602;11.904;2022-09-20T17:04:04;1.83;;;1.08;;
62574;SDS011;53112;45.602;11.904;2022-09-20T17:06:31;2.75;;;1.10;;
62574;SDS011;53112;45.602;11.904;2022-09-20T17:08:58;2.22;;;1.20;;
62574;SDS011;53112;45.602;11.904;2022-09-20T17:11:26;4.30;;;1.08;;
62574;SDS011;53112;45.602;11.904;2022-09-20T17:13:54;1.38;;;0.93;;
62574;SDS011;53112;45.602;11.904;2022-09-20T17:16:25;1.05;;;0.88;;
62574;SDS011;53112;45.602;11.904;2022-09-20T17:18:57;2.95;;;1.20;;
62574;SDS011;53112;45.602;11.904;2022-09-20T17:21:25;1.58;;;1.02;;
62574;SDS011;53112;45.602;11.904;2022-09-20T17:23:53;1.48;;;1.20;;
62574;SDS011;53112;45.602;11.904;2022-09-20T17:26:23;1.20;;;1.10;;
62574;SDS011;53112;45.602;11.904;2022-09-20T17:28:58;3.00;;;1.10;;
62574;SDS011;53112;45.602;11.904;2022-09-20T17:31:35;3.08;;;1.13;;
62574;SDS011;53112;45.602;11.904;2022-09-20T17:34:04;1.00;;;0.90;;
62574;SDS011;53112;45.602;11.904;2022-09-20T17:36:33;1.20;;;1.10;;
62574;SDS011;53112;45.602;11.904;2022-09-20T17:39:10;1.20;;;1.10;;
62574;SDS011;53112;45.602;11.904;2022-09-20T17:41:40;1.45;;;0.93;;
62574;SDS011;53112;45.602;11.904;2022-09-20T17:44:09;1.23;;;0.93;;
62574;SDS011;53112;45.602;11.904;2022-09-20T17:46:36;0.90;;;0.90;;
62574;SDS011;53112;45.602;11.904;2022-09-20T17:49:05;1.20;;;1.10;;
62574;SDS011;53112;45.602;11.904;2022-09-20T17:51:37;1.13;;;0.98;;
62574;SDS011;53112;45.602;11.904;2022-09-20T17:54:08;1.08;;;1.00;;
62574;SDS011;53112;45.602;11.904;2022-09-20T17:56:38;3.10;;;1.17;;
62574;SDS011;53112;45.602;11.904;2022-09-20T17:59:07;1.40;;;1.30;;
62574;SDS011;53112;45.602;11.904;2022-09-20T18:01:34;2.30;;;1.20;;
62574;SDS011;53112;45.602;11.904;2022-09-20T18:04:02;2.05;;;1.23;;
62574;SDS011;53112;45.602;11.904;2022-09-20T18:06:30;1.45;;;1.30;;
62574;SDS011;53112;45.602;11.904;2022-09-20T18:09:00;2.40;;;1.20;;
62574;SDS011;53112;45.602;11.904;2022-09-20T18:11:28;2.22;;;1.35;;
62574;SDS011;53112;45.602;11.904;2022-09-20T18:14:00;2.78;;;1.52;;
62574;SDS011;53112;45.602;11.904;2022-09-20T18:16:26;2.20;;;1.42;;
62574;SDS011;53112;45.602;11.904;2022-09-20T18:18:52;2.28;;;1.40;;
62574;SDS011;53112;45.602;11.904;2022-09-20T18:21:20;3.33;;;1.50;;
62574;SDS011;53112;45.602;11.904;2022-09-20T18:23:50;1.33;;;1.23;;
62574;SDS011;53112;45.602;11.904;2022-09-20T18:26:17;1.88;;;1.30;;
62574;SDS011;53112;45.602;11.904;2022-09-20T18:28:51;3.00;;;1.50;;
62574;SDS011;53112;45.602;11.904;2022-09-20T18:31:22;1.85;;;1.40;;
62574;SDS011;53112;45.602;11.904;2022-09-20T18:34:10;1.90;;;1.35;;
62574;SDS011;53112;45.602;11.904;2022-09-20T18:36:42;2.08;;;1.52;;
62574;SDS011;53112;45.602;11.904;2022-09-20T18:39:10;1.40;;;1.17;;
62574;SDS011;53112;45.602;11.904;2022-09-20T18:41:37;1.95;;;1.42;;
62574;SDS011;53112;45.602;11.904;2022-09-20T18:44:05;2.25;;;1.50;;
62574;SDS011;53112;45.602;11.904;2022-09-20T18:46:32;1.88;;;1.40;;
62574;SDS011;53112;45.602;11.904;2022-09-20T18:49:03;1.40;;;1.30;;
62574;SDS011;53112;45.602;11.904;2022-09-20T18:51:34;2.70;;;1.55;;
62574;SDS011;53112;45.602;11.904;2022-09-20T18:54:02;4.38;;;2.25;;
62574;SDS011;53112;45.602;11.904;2022-09-20T18:56:31;3.70;;;2.28;;
62574;SDS011;53112;45.602;11.904;2022-09-20T18:59:03;2.28;;;1.85;;
62574;SDS011;53112;45.602;11.904;2022-09-20T19:12:36;1.70;;;1.50;;
62574;SDS011;53112;45.602;11.904;2022-09-20T19:15:14;3.10;;;1.58;;
62574;SDS011;53112;45.602;11.904;2022-09-20T19:23:02;2.35;;;1.50;;
62574;SDS011;53112;45.602;11.904;2022-09-20T19:25:44;2.97;;;1.70;;
62574;SDS011;53112;45.602;11.904;2022-09-20T19:28:12;2.88;;;1.75;;
62574;SDS011;53112;45.602;11.904;2022-09-20T19:30:40;4.00;;;1.80;;
62574;SDS011;53112;45.602;11.904;2022-09-20T19:33:12;2.08;;;1.52;;
62574;SDS011;53112;45.602;11.904;2022-09-20T19:35:42;4.70;;;1.80;;
62574;SDS011;53112;45.602;11.904;2022-09-20T19:38:14;2.05;;;1.60;;
62574;SDS011;53112;45.602;11.904;2022-09-20T19:46:03;3.83;;;1.60;;
62574;SDS011;53112;45.602;11.904;2022-09-20T19:51:31;2.83;;;1.50;;
62574;SDS011;53112;45.602;11.904;2022-09-20T19:54:03;1.98;;;1.40;;
62574;SDS011;53112;45.602;11.904;2022-09-20T19:56:31;2.60;;;1.80;;
62574;SDS011;53112;45.602;11.904;2022-09-20T19:59:11;3.60;;;1.88;;
62574;SDS011;53112;45.602;11.904;2022-09-20T20:01:37;3.95;;;1.73;;
62574;SDS011;53112;45.602;11.904;2022-09-20T20:04:03;1.75;;;1.60;;
62574;SDS011;53112;45.602;11.904;2022-09-20T20:06:31;2.45;;;1.75;;
62574;SDS011;53112;45.602;11.904;2022-09-20T20:14:32;2.75;;;1.98;;
62574;SDS011;53112;45.602;11.904;2022-09-20T20:26:22;4.20;;;1.90;;
62574;SDS011;53112;45.602;11.904;2022-09-20T20:28:33;3.28;;;2.00;;
62574;SDS011;53112;45.602;11.904;2022-09-20T20:31:00;3.17;;;2.17;;
62574;SDS011;53112;45.602;11.904;2022-09-20T20:33:27;4.30;;;2.28;;
62574;SDS011;53112;45.602;11.904;2022-09-20T20:35:55;2.63;;;2.20;;
62574;SDS011;53112;45.602;11.904;2022-09-20T20:38:23;3.88;;;2.20;;
62574;SDS011;53112;45.602;11.904;2022-09-20T20:41:00;3.72;;;2.20;;
62574;SDS011;53112;45.602;11.904;2022-09-20T20:43:31;3.70;;;2.10;;
62574;SDS011;53112;45.602;11.904;2022-09-20T20:45:59;4.00;;;2.30;;
62574;SDS011;53112;45.602;11.904;2022-09-20T20:48:25;7.97;;;2.60;;
62574;SDS011;53112;45.602;11.904;2022-09-20T20:50:58;3.72;;;2.22;;
62574;SDS011;53112;45.602;11.904;2022-09-20T20:53:28;3.25;;;2.17;;
62574;SDS011;53112;45.602;11.904;2022-09-20T20:56:07;3.45;;;2.20;;
62574;SDS011;53112;45.602;11.904;2022-09-20T20:58:40;2.92;;;2.08;;
62574;SDS011;53112;45.602;11.904;2022-09-20T21:01:11;4.45;;;2.38;;
62574;SDS011;53112;45.602;11.904;2022-09-20T21:03:44;3.42;;;2.20;;
62574;SDS011;53112;45.602;11.904;2022-09-20T21:06:12;2.60;;;2.00;;
62574;SDS011;53112;45.602;11.904;2022-09-20T21:08:40;4.03;;;1.88;;
62574;SDS011;53112;45.602;11.904;2022-09-20T21:11:09;5.45;;;2.30;;
62574;SDS011;53112;45.602;11.904;2022-09-20T21:13:42;2.55;;;1.98;;
62574;SDS011;53112;45.602;11.904;2022-09-20T21:18:36;4.15;;;2.10;;
62574;SDS011;53112;45.602;11.904;2022-09-20T21:21:04;3.75;;;2.20;;
62574;SDS011;53112;45.602;11.904;2022-09-20T21:23:58;4.50;;;2.17;;